Time;durP1;ratioP1;P1;durP2;ratioP2;P2;SDS_P1;SDS_P2;PMS_P1;PMS_P2;Temp;Humidity;BMP_temperature;BMP_pressure;BME280_temperature;BME280_humidity;BME280_pressure;Samples;Min_cycle;Max_cycle;Signal;HPM_P1;HPM_P2
2023/08/13 00:00:16;;;;;;;10.75;3.33;;;16.70;99.90;;;;;;5096449;28;20054;-57
2023/08/13 00:02:45;;;;;;;12.93;3.28;;;16.50;99.90;;;;;;5098841;28;20082;-56
2023/08/13 00:05:10;;;;;;;10.00;3.00;;;16.40;99.90;;;;;;5096646;28;20165;-56
2023/08/13 00:07:37;;;;;;;13.35;3.03;;;16.50;99.90;;;;;;5097768;28;20048;-56
2023/08/13 00:10:04;;;;;;;12.70;3.00;;;16.40;99.90;;;;;;5098244;28;20119;-56
2023/08/13 00:12:30;;;;;;;11.00;3.17;;;16.40;99.90;;;;;;5096594;28;20312;-57
2023/08/13 00:14:56;;;;;;;14.73;2.95;;;16.40;99.90;;;;;;5098561;28;20075;-57
2023/08/13 00:17:22;;;;;;;10.48;3.45;;;16.40;99.90;;;;;;5096247;28;20051;-57
2023/08/13 00:19:47;;;;;;;11.82;3.17;;;16.40;99.90;;;;;;5098271;28;20372;-56
2023/08/13 00:22:13;;;;;;;8.98;2.60;;;16.30;99.90;;;;;;5096519;28;20043;-56
2023/08/13 00:24:39;;;;;;;9.82;3.25;;;16.30;99.90;;;;;;5097918;28;20212;-57
2023/08/13 00:27:04;;;;;;;8.65;4.10;;;16.20;99.90;;;;;;5097584;28;20040;-56
2023/08/13 00:29:31;;;;;;;9.68;2.50;;;16.20;99.90;;;;;;5096505;28;20561;-57
2023/08/13 00:31:57;;;;;;;13.75;2.90;;;16.20;99.90;;;;;;5098739;28;20464;-56
2023/08/13 00:34:22;;;;;;;11.20;3.28;;;16.20;99.90;;;;;;5095777;28;20072;-56
2023/08/13 00:36:48;;;;;;;10.25;2.58;;;16.20;99.90;;;;;;5098185;28;20161;-57
2023/08/13 00:39:14;;;;;;;9.38;2.55;;;16.20;99.90;;;;;;5096148;28;20091;-56
2023/08/13 00:41:40;;;;;;;9.75;2.90;;;16.20;99.90;;;;;;5097893;28;20174;-57
2023/08/13 00:44:05;;;;;;;10.18;3.03;;;16.30;99.90;;;;;;5097023;28;20048;-56
2023/08/13 00:46:33;;;;;;;11.02;2.67;;;16.20;99.90;;;;;;5096817;28;20094;-57
2023/08/13 00:48:59;;;;;;;12.15;3.17;;;16.20;99.90;;;;;;5097705;28;20044;-56
2023/08/13 00:51:26;;;;;;;11.20;3.50;;;16.10;99.90;;;;;;5077123;28;20050;-57
2023/08/13 00:53:53;;;;;;;11.48;2.65;;;16.20;99.90;;;;;;5098229;28;20056;-57
2023/08/13 00:56:19;;;;;;;10.77;2.88;;;16.20;99.90;;;;;;5087343;28;20047;-57
2023/08/13 00:58:45;;;;;;;7.78;2.45;;;16.20;99.90;;;;;;5077544;28;20033;-57
2023/08/13 01:01:12;;;;;;;11.43;3.20;;;16.10;99.90;;;;;;5076552;28;20061;-57
2023/08/13 01:03:38;;;;;;;10.25;3.15;;;16.20;99.90;;;;;;5076633;28;20045;-57
2023/08/13 01:06:12;;;;;;;10.43;3.08;;;16.10;99.90;;;;;;5077482;28;20093;-56
2023/08/13 01:08:54;;;;;;;8.77;2.65;;;16.20;99.90;;;;;;5075470;28;20079;-57
2023/08/13 01:11:32;;;;;;;10.38;2.92;;;16.10;99.90;;;;;;5077281;28;20056;-57
2023/08/13 01:14:17;;;;;;;10.90;2.72;;;16.10;99.90;;;;;;5076172;28;20045;-57
2023/08/13 01:16:43;;;;;;;11.82;2.88;;;16.10;99.90;;;;;;5078300;28;20056;-56
2023/08/13 01:19:13;;;;;;;12.73;2.90;;;16.00;99.90;;;;;;5081724;28;20044;-57
2023/08/13 01:21:39;;;;;;;10.63;2.97;;;16.10;99.90;;;;;;5078811;28;20048;-58
2023/08/13 01:24:05;;;;;;;12.82;2.83;;;16.00;99.90;;;;;;5081402;28;20041;-57
2023/08/13 01:26:44;;;;;;;11.50;2.95;;;16.10;99.90;;;;;;5079497;28;20048;-57
2023/08/13 01:29:20;;;;;;;10.07;3.17;;;16.00;99.90;;;;;;5080294;28;20051;-58
2023/08/13 01:31:50;;;;;;;11.35;4.05;;;16.00;99.90;;;;;;5081186;28;20052;-56
2023/08/13 01:34:17;;;;;;;8.95;2.58;;;16.00;99.90;;;;;;5078860;28;20052;-57
2023/08/13 01:36:45;;;;;;;11.85;2.90;;;16.00;99.90;;;;;;5080952;28;20044;-56
2023/08/13 01:39:11;;;;;;;13.70;3.08;;;16.00;99.90;;;;;;5079013;28;20037;-57
2023/08/13 01:41:50;;;;;;;10.77;3.10;;;16.00;99.90;;;;;;5080630;28;20055;-58
2023/08/13 01:44:16;;;;;;;12.65;3.85;;;15.90;99.90;;;;;;5080470;28;20100;-56
2023/08/13 01:46:41;;;;;;;12.75;3.30;;;16.00;99.90;;;;;;5079015;28;20032;-57
2023/08/13 01:49:07;;;;;;;15.02;3.28;;;16.00;99.90;;;;;;5080825;28;20068;-56
2023/08/13 01:51:33;;;;;;;10.32;2.72;;;16.00;99.90;;;;;;5078366;28;20071;-57
2023/08/13 01:53:58;;;;;;;13.18;2.92;;;15.90;99.90;;;;;;5080475;28;20048;-57
2023/08/13 01:56:24;;;;;;;10.68;3.40;;;15.90;99.90;;;;;;5088609;28;20463;-57
2023/08/13 01:58:50;;;;;;;12.20;3.20;;;15.90;99.90;;;;;;5100783;28;20044;-57
2023/08/13 02:01:15;;;;;;;13.00;3.22;;;15.90;99.90;;;;;;5099807;28;20052;-56
2023/08/13 02:03:41;;;;;;;10.93;3.58;;;15.90;99.90;;;;;;5099591;28;20040;-57
2023/08/13 02:06:06;;;;;;;12.90;3.42;;;15.90;99.90;;;;;;5100764;28;20040;-56
2023/08/13 02:08:32;;;;;;;11.38;3.05;;;15.90;99.90;;;;;;5098962;28;20064;-57
2023/08/13 02:10:58;;;;;;;12.20;2.95;;;15.80;99.90;;;;;;5100714;28;20024;-57
2023/08/13 02:13:24;;;;;;;14.48;3.25;;;15.80;99.90;;;;;;5098984;28;20530;-56
2023/08/13 02:15:50;;;;;;;9.63;2.90;;;15.80;99.90;;;;;;5100058;28;20408;-57
2023/08/13 02:18:15;;;;;;;13.30;3.13;;;15.80;99.90;;;;;;5099168;28;20040;-56
2023/08/13 02:20:41;;;;;;;9.95;3.00;;;15.70;99.90;;;;;;5099293;28;20047;-56
2023/08/13 02:23:07;;;;;;;15.00;3.38;;;15.80;99.90;;;;;;5100222;28;20131;-57
2023/08/13 02:25:32;;;;;;;10.13;2.72;;;15.80;99.90;;;;;;5098505;28;20054;-57
2023/08/13 02:27:58;;;;;;;13.75;3.22;;;15.80;99.90;;;;;;5099287;28;20040;-57
2023/08/13 02:30:23;;;;;;;14.35;3.60;;;15.80;99.90;;;;;;5080497;28;20044;-57
2023/08/13 02:32:49;;;;;;;12.13;3.38;;;15.90;99.90;;;;;;5081717;28;20055;-57
2023/08/13 02:35:15;;;;;;;12.38;3.15;;;15.80;99.90;;;;;;5098836;28;20103;-56
2023/08/13 02:37:40;;;;;;;11.82;3.17;;;15.80;99.90;;;;;;5099419;28;20044;-57
2023/08/13 02:40:07;;;;;;;10.32;2.90;;;15.60;99.90;;;;;;5099949;28;20059;-56
2023/08/13 02:42:33;;;;;;;11.95;3.67;;;15.70;99.90;;;;;;5097972;28;20426;-57
2023/08/13 02:44:58;;;;;;;13.73;3.22;;;15.70;99.90;;;;;;5100286;28;20048;-57
2023/08/13 02:47:24;;;;;;;13.55;3.22;;;15.70;99.90;;;;;;5097822;28;20055;-57
2023/08/13 02:49:50;;;;;;;12.82;3.20;;;15.80;99.90;;;;;;5099229;28;20072;-56
2023/08/13 02:52:16;;;;;;;12.30;3.30;;;15.70;99.90;;;;;;5098369;28;20044;-56
2023/08/13 02:54:42;;;;;;;12.50;3.67;;;15.80;99.90;;;;;;5080825;28;20044;-57
2023/08/13 02:57:08;;;;;;;13.93;4.03;;;15.80;99.90;;;;;;5083839;28;20539;-56
2023/08/13 02:59:33;;;;;;;14.35;3.88;;;15.80;99.90;;;;;;5077335;28;20123;-57
2023/08/13 03:01:59;;;;;;;15.85;3.30;;;15.80;99.90;;;;;;5061882;28;20055;-57
2023/08/13 03:04:24;;;;;;;10.32;3.20;;;15.80;99.90;;;;;;5077179;28;20140;-57
2023/08/13 03:06:50;;;;;;;12.88;3.47;;;15.80;99.90;;;;;;5079549;28;20100;-57
2023/08/13 03:09:21;;;;;;;12.00;3.50;;;15.70;99.90;;;;;;5077363;28;20048;-57
2023/08/13 03:11:48;;;;;;;14.43;3.63;;;15.70;99.90;;;;;;5078772;28;20431;-57
2023/08/13 03:14:14;;;;;;;11.43;3.42;;;15.80;99.90;;;;;;5078848;28;20044;-56
2023/08/13 03:16:40;;;;;;;14.43;3.35;;;15.60;99.90;;;;;;5077272;28;20064;-57
2023/08/13 03:19:06;;;;;;;12.32;3.35;;;15.60;99.90;;;;;;5079384;28;20043;-57
2023/08/13 03:21:32;;;;;;;16.00;4.93;;;15.80;99.90;;;;;;5076797;28;20044;-54
2023/08/13 03:23:57;;;;;;;11.68;3.30;;;15.80;99.90;;;;;;5079180;28;20039;-57
2023/08/13 03:26:23;;;;;;;11.25;3.45;;;15.60;99.90;;;;;;5077152;28;20044;-56
2023/08/13 03:28:48;;;;;;;12.25;3.00;;;15.60;99.90;;;;;;5078194;28;20443;-57
2023/08/13 03:31:14;;;;;;;13.93;3.40;;;15.70;99.90;;;;;;5078480;28;20045;-56
2023/08/13 03:33:40;;;;;;;14.57;3.38;;;15.60;99.90;;;;;;5077274;28;20044;-57
2023/08/13 03:36:05;;;;;;;13.20;3.30;;;15.60;99.90;;;;;;5079188;28;20053;-56
2023/08/13 03:38:31;;;;;;;15.00;3.60;;;15.70;99.90;;;;;;5076072;28;20047;-56
2023/08/13 03:40:57;;;;;;;11.98;2.90;;;15.80;99.90;;;;;;5078908;28;20045;-57
2023/08/13 03:43:23;;;;;;;12.55;3.75;;;15.60;99.90;;;;;;5076374;28;20040;-56
2023/08/13 03:45:48;;;;;;;13.88;3.85;;;15.70;99.90;;;;;;5078433;28;20420;-56
2023/08/13 03:48:14;;;;;;;11.48;3.60;;;15.60;99.90;;;;;;5077417;28;20131;-56
2023/08/13 03:50:41;;;;;;;12.18;3.53;;;15.60;99.90;;;;;;5077245;28;20084;-57
2023/08/13 03:53:07;;;;;;;15.15;3.85;;;15.60;99.90;;;;;;5078532;28;20096;-57
2023/08/13 03:55:33;;;;;;;15.20;3.17;;;15.60;99.90;;;;;;5060598;28;20056;-56
2023/08/13 03:57:59;;;;;;;16.23;4.47;;;15.60;99.90;;;;;;5098773;28;20201;-57
2023/08/13 04:00:24;;;;;;;15.02;4.00;;;15.70;99.90;;;;;;5096363;28;20044;-57
2023/08/13 04:02:50;;;;;;;18.83;4.35;;;15.60;99.90;;;;;;5098659;28;20044;-57
2023/08/13 04:05:16;;;;;;;10.85;3.10;;;15.60;99.90;;;;;;5097383;28;20075;-58
2023/08/13 04:07:42;;;;;;;16.15;4.18;;;15.70;99.90;;;;;;5097845;28;20487;-57
2023/08/13 04:10:08;;;;;;;15.40;3.30;;;15.60;99.90;;;;;;5098414;28;20122;-56
2023/08/13 04:12:33;;;;;;;12.18;3.65;;;15.70;99.90;;;;;;5096483;28;20032;-57
2023/08/13 04:15:01;;;;;;;11.68;3.60;;;15.80;99.90;;;;;;5098635;28;20406;-57
2023/08/13 04:17:27;;;;;;;12.25;3.40;;;15.80;99.90;;;;;;5096477;28;20072;-56
2023/08/13 04:19:52;;;;;;;12.40;4.22;;;15.80;99.90;;;;;;5098118;28;20047;-57
2023/08/13 04:22:18;;;;;;;10.68;3.40;;;15.80;99.90;;;;;;5096798;28;20036;-56
2023/08/13 04:24:50;;;;;;;11.82;3.83;;;15.90;99.90;;;;;;5097696;28;20051;-57
2023/08/13 04:27:19;;;;;;;11.82;3.80;;;15.80;99.90;;;;;;5098123;28;20044;-56
2023/08/13 04:29:45;;;;;;;11.55;3.70;;;15.90;99.90;;;;;;5096327;28;20050;-57
2023/08/13 04:32:11;;;;;;;12.07;3.80;;;15.80;99.90;;;;;;5098039;28;20059;-58
2023/08/13 04:34:36;;;;;;;14.60;3.47;;;15.80;99.90;;;;;;5096165;28;20041;-58
2023/08/13 04:37:02;;;;;;;13.38;3.65;;;15.90;99.90;;;;;;5098416;28;20044;-57
2023/08/13 04:39:28;;;;;;;11.07;3.55;;;15.90;99.90;;;;;;5096456;28;20059;-57
2023/08/13 04:41:59;;;;;;;11.65;3.80;;;15.80;99.90;;;;;;5097436;28;20044;-58
2023/08/13 04:44:24;;;;;;;10.95;3.60;;;15.90;99.90;;;;;;5098217;28;20036;-57
2023/08/13 04:46:50;;;;;;;14.25;4.25;;;15.90;99.90;;;;;;5096368;28;20110;-57
2023/08/13 04:49:16;;;;;;;15.77;3.60;;;15.90;99.90;;;;;;5098001;28;20079;-57
2023/08/13 04:51:41;;;;;;;11.43;3.80;;;16.10;99.90;;;;;;5098723;28;20048;-57
2023/08/13 04:54:07;;;;;;;17.67;4.60;;;15.90;99.90;;;;;;5101830;28;20099;-57
2023/08/13 04:56:32;;;;;;;15.73;3.75;;;16.00;99.90;;;;;;5089737;28;20041;-56
2023/08/13 04:58:58;;;;;;;14.85;3.28;;;16.10;99.90;;;;;;5081402;28;20055;-57
2023/08/13 05:01:24;;;;;;;15.32;4.50;;;16.20;99.90;;;;;;5081467;28;20048;-56
2023/08/13 05:03:50;;;;;;;12.32;3.85;;;16.10;99.90;;;;;;5080093;28;20349;-57
2023/08/13 05:06:15;;;;;;;11.55;3.58;;;16.20;99.90;;;;;;5082133;28;20044;-56
2023/08/13 05:08:41;;;;;;;16.02;3.55;;;16.40;99.90;;;;;;5079893;28;20101;-58
2023/08/13 05:11:07;;;;;;;14.20;3.70;;;16.50;99.90;;;;;;5081320;28;20159;-57
2023/08/13 05:13:33;;;;;;;16.63;4.05;;;16.40;99.90;;;;;;5080232;28;20036;-57
2023/08/13 05:15:59;;;;;;;14.90;4.30;;;16.50;99.90;;;;;;5081096;28;20105;-57
2023/08/13 05:18:24;;;;;;;17.25;5.03;;;16.50;99.90;;;;;;5080847;28;20116;-56
2023/08/13 05:20:51;;;;;;;14.25;4.22;;;16.40;99.90;;;;;;5079968;28;20051;-57
2023/08/13 05:23:16;;;;;;;11.57;3.75;;;16.60;99.90;;;;;;5081395;28;20051;-57
2023/08/13 05:25:42;;;;;;;18.67;5.97;;;16.60;99.90;;;;;;5079301;28;20092;-57
2023/08/13 05:28:08;;;;;;;12.07;3.88;;;16.60;99.90;;;;;;5081339;28;20070;-57
2023/08/13 05:30:38;;;;;;;12.10;3.97;;;16.70;99.90;;;;;;5079449;28;20407;-57
2023/08/13 05:33:04;;;;;;;11.10;3.63;;;16.70;99.90;;;;;;5080982;28;20074;-57
2023/08/13 05:35:30;;;;;;;13.68;3.95;;;16.70;99.90;;;;;;5080738;28;20791;-57
2023/08/13 05:37:56;;;;;;;12.10;4.28;;;16.70;99.90;;;;;;5079637;28;20040;-57
2023/08/13 05:40:21;;;;;;;10.85;4.03;;;16.60;99.90;;;;;;5081068;28;20067;-57
2023/08/13 05:42:48;;;;;;;12.18;3.47;;;16.70;99.90;;;;;;5079152;28;20040;-56
2023/08/13 05:45:13;;;;;;;13.40;3.70;;;16.60;99.90;;;;;;5080860;28;20114;-57
2023/08/13 05:47:39;;;;;;;11.95;3.67;;;16.60;99.90;;;;;;5079640;28;20092;-56
2023/08/13 05:50:05;;;;;;;12.63;3.35;;;16.70;99.90;;;;;;5080189;28;21517;-57
2023/08/13 05:52:31;;;;;;;11.98;4.18;;;16.60;99.90;;;;;;5079894;28;20043;-55
2023/08/13 05:54:56;;;;;;;11.80;4.55;;;16.80;99.90;;;;;;5079354;28;20181;-57
2023/08/13 05:57:22;;;;;;;14.77;3.80;;;16.70;99.90;;;;;;5098704;28;20506;-57
2023/08/13 05:59:48;;;;;;;10.98;3.53;;;16.60;99.90;;;;;;5098869;28;20096;-57
2023/08/13 06:02:13;;;;;;;14.35;3.50;;;16.60;99.90;;;;;;5100884;28;20036;-56
2023/08/13 06:04:39;;;;;;;15.65;3.95;;;16.70;99.90;;;;;;5099520;28;20505;-57
2023/08/13 06:07:05;;;;;;;13.00;3.70;;;16.60;99.90;;;;;;5100605;28;20046;-57
2023/08/13 06:09:31;;;;;;;16.35;3.65;;;16.60;99.90;;;;;;5100126;28;20036;-57
2023/08/13 06:11:56;;;;;;;11.40;4.22;;;16.60;99.90;;;;;;5081611;28;20047;-57
2023/08/13 06:14:22;;;;;;;10.90;4.05;;;16.60;99.90;;;;;;5100833;28;20056;-56
2023/08/13 06:16:48;;;;;;;13.43;3.75;;;16.50;99.90;;;;;;5098906;28;20036;-57
2023/08/13 06:19:14;;;;;;;15.30;3.97;;;16.70;99.90;;;;;;5100792;28;20113;-57
2023/08/13 06:21:39;;;;;;;12.77;3.85;;;17.00;99.90;;;;;;5098884;28;20043;-57
2023/08/13 06:24:06;;;;;;;14.88;4.28;;;17.00;99.90;;;;;;5100650;28;20103;-57
2023/08/13 06:26:32;;;;;;;13.95;4.25;;;17.10;99.90;;;;;;5099456;28;20036;-57
2023/08/13 06:28:58;;;;;;;14.15;4.30;;;17.20;99.90;;;;;;5100068;28;20044;-57
2023/08/13 06:31:24;;;;;;;14.25;3.80;;;17.50;99.90;;;;;;5100446;28;20040;-56
2023/08/13 06:33:49;;;;;;;10.52;3.60;;;17.50;99.90;;;;;;5098730;28;20105;-57
2023/08/13 06:36:15;;;;;;;11.18;3.85;;;17.70;99.90;;;;;;5100758;28;20090;-57
2023/08/13 06:38:41;;;;;;;10.90;4.18;;;17.90;99.90;;;;;;5080052;28;20048;-57
2023/08/13 06:41:06;;;;;;;13.85;4.68;;;17.80;99.90;;;;;;5100264;28;20131;-57
2023/08/13 06:43:33;;;;;;;13.02;4.15;;;17.90;99.90;;;;;;5099137;28;20057;-56
2023/08/13 06:46:00;;;;;;;15.57;4.18;;;17.90;99.90;;;;;;5099906;28;20408;-57
2023/08/13 06:48:27;;;;;;;15.43;4.40;;;17.80;99.90;;;;;;5099953;28;20071;-56
2023/08/13 06:50:56;;;;;;;12.27;4.07;;;17.70;99.90;;;;;;5098217;28;20135;-57
2023/08/13 06:53:23;;;;;;;14.98;4.70;;;17.70;99.90;;;;;;5100962;28;20060;-57
2023/08/13 06:55:48;;;;;;;13.45;4.70;;;17.60;99.90;;;;;;5093302;28;20075;-57
2023/08/13 06:58:14;;;;;;;15.18;5.45;;;17.60;99.90;;;;;;5080052;28;20040;-57
2023/08/13 07:00:41;;;;;;;17.42;4.50;;;17.90;99.90;;;;;;5078323;28;20524;-57
2023/08/13 07:03:07;;;;;;;10.75;4.20;;;17.90;99.90;;;;;;5079440;28;20036;-57
2023/08/13 07:05:34;;;;;;;13.68;4.50;;;18.00;99.90;;;;;;5079738;28;20048;-56
2023/08/13 07:08:00;;;;;;;14.30;4.65;;;18.00;99.90;;;;;;5078323;28;20047;-57
2023/08/13 07:10:27;;;;;;;14.15;4.90;;;18.00;99.90;;;;;;5080304;28;20045;-56
2023/08/13 07:12:52;;;;;;;15.27;4.80;;;18.20;99.90;;;;;;5077362;28;20372;-57
2023/08/13 07:15:18;;;;;;;10.88;4.15;;;18.20;99.90;;;;;;5079566;28;20631;-57
2023/08/13 07:17:43;;;;;;;14.70;4.03;;;18.10;99.90;;;;;;5077806;28;20424;-57
2023/08/13 07:20:13;;;;;;;11.90;5.00;;;18.40;99.90;;;;;;5079046;28;20044;-57
2023/08/13 07:22:43;;;;;;;15.00;4.18;;;18.30;99.90;;;;;;5078907;28;20056;-57
2023/08/13 07:25:09;;;;;;;14.13;4.32;;;18.60;99.90;;;;;;5077674;28;20052;-56
2023/08/13 07:27:35;;;;;;;13.63;4.13;;;18.70;99.90;;;;;;5080219;28;20463;-56
2023/08/13 07:30:02;;;;;;;14.32;4.07;;;18.60;99.90;;;;;;5077082;28;20096;-57
2023/08/13 07:32:28;;;;;;;13.45;4.10;;;18.50;99.90;;;;;;5079142;28;20044;-58
2023/08/13 07:34:54;;;;;;;13.85;4.28;;;18.70;99.90;;;;;;5077518;28;20048;-56
2023/08/13 07:37:20;;;;;;;13.02;4.80;;;18.60;99.90;;;;;;5078836;28;20115;-57
2023/08/13 07:39:46;;;;;;;12.90;3.75;;;18.70;99.90;;;;;;5078914;28;20063;-57
2023/08/13 07:42:12;;;;;;;12.55;3.72;;;18.70;99.90;;;;;;5077565;28;20491;-57
2023/08/13 07:44:37;;;;;;;14.15;3.90;;;18.70;99.90;;;;;;5079701;28;20060;-57
2023/08/13 07:47:04;;;;;;;13.32;4.22;;;18.80;99.90;;;;;;5076522;28;20051;-57
2023/08/13 07:49:30;;;;;;;10.90;3.55;;;18.80;99.90;;;;;;5079033;28;20047;-56
2023/08/13 07:51:55;;;;;;;11.82;4.22;;;18.90;99.90;;;;;;5077010;28;20060;-57
2023/08/13 07:54:21;;;;;;;12.40;4.18;;;18.90;99.90;;;;;;5078652;28;20399;-56
2023/08/13 07:56:47;;;;;;;14.02;4.50;;;18.80;99.90;;;;;;5090676;28;20055;-57
2023/08/13 07:59:13;;;;;;;13.82;4.03;;;18.90;99.90;;;;;;5097794;28;20067;-57
2023/08/13 08:01:42;;;;;;;10.95;4.03;;;19.00;99.90;;;;;;5098839;28;20040;-56
2023/08/13 08:04:07;;;;;;;12.45;4.38;;;19.40;99.90;;;;;;5097063;28;20071;-56
2023/08/13 08:06:33;;;;;;;12.93;4.68;;;19.20;99.90;;;;;;5099004;28;20044;-57
2023/08/13 08:08:59;;;;;;;12.27;4.35;;;19.40;99.90;;;;;;5097088;28;20089;-56
2023/08/13 08:11:25;;;;;;;12.43;4.82;;;19.40;99.90;;;;;;5098886;28;20040;-57
2023/08/13 08:13:50;;;;;;;13.98;4.75;;;19.20;99.90;;;;;;5097773;28;20055;-56
2023/08/13 08:16:16;;;;;;;12.45;4.05;;;19.20;99.90;;;;;;5097828;28;20131;-57
2023/08/13 08:18:42;;;;;;;11.63;4.22;;;19.40;99.90;;;;;;5098585;28;20050;-57
2023/08/13 08:21:07;;;;;;;11.15;4.25;;;19.70;99.90;;;;;;5097019;28;20048;-56
2023/08/13 08:23:33;;;;;;;11.60;4.40;;;19.50;99.90;;;;;;5098840;28;20047;-57
2023/08/13 08:25:59;;;;;;;11.98;3.95;;;19.50;99.90;;;;;;5096869;28;20036;-57
2023/08/13 08:28:26;;;;;;;10.55;4.53;;;19.40;99.90;;;;;;5098746;28;20036;-57
2023/08/13 08:30:52;;;;;;;12.38;3.75;;;19.50;99.90;;;;;;5097318;28;20051;-56
2023/08/13 08:33:20;;;;;;;9.98;3.58;;;19.90;99.90;;;;;;5098102;28;20071;-57
2023/08/13 08:35:45;;;;;;;11.52;3.80;;;19.80;99.90;;;;;;5098650;28;20101;-56
2023/08/13 08:38:13;;;;;;;14.10;4.40;;;19.80;99.90;;;;;;5096880;28;20109;-57
2023/08/13 08:40:41;;;;;;;12.38;3.70;;;19.80;99.90;;;;;;5098776;28;20040;-57
2023/08/13 08:43:07;;;;;;;10.73;3.60;;;20.00;99.90;;;;;;5096754;28;20051;-57
2023/08/13 08:45:33;;;;;;;12.85;5.13;;;20.20;99.90;;;;;;5098237;28;20052;-57
2023/08/13 08:48:00;;;;;;;12.50;3.70;;;20.40;99.90;;;;;;5096922;28;20089;-57
2023/08/13 08:50:26;;;;;;;9.50;3.35;;;20.70;99.90;;;;;;5097668;28;20044;-57
2023/08/13 08:52:52;;;;;;;13.43;4.10;;;20.70;99.90;;;;;;5098165;28;20048;-57
2023/08/13 08:55:17;;;;;;;13.85;3.95;;;20.30;99.90;;;;;;5096281;28;20174;-57
2023/08/13 08:57:43;;;;;;;10.82;3.53;;;20.30;99.90;;;;;;5078123;28;20073;-56
2023/08/13 09:00:09;;;;;;;10.93;3.75;;;20.50;99.90;;;;;;5076298;28;20076;-58
2023/08/13 09:02:38;;;;;;;12.70;4.43;;;20.60;99.90;;;;;;5077802;28;20040;-57
2023/08/13 09:05:05;;;;;;;10.02;3.72;;;20.20;99.90;;;;;;5076910;28;20066;-55
2023/08/13 09:07:31;;;;;;;9.95;4.20;;;20.30;99.90;;;;;;5077116;28;20037;-59
2023/08/13 09:09:57;;;;;;;11.93;3.72;;;20.30;99.90;;;;;;5077785;28;20056;-56
2023/08/13 09:12:23;;;;;;;13.18;4.70;;;20.30;99.90;;;;;;5075660;28;20052;-59
2023/08/13 09:14:55;;;;;;;11.23;4.28;;;20.40;99.90;;;;;;5077494;28;20452;-57
2023/08/13 09:17:24;;;;;;;10.30;3.10;;;20.30;99.90;;;;;;5075830;28;20048;-58
2023/08/13 09:19:50;;;;;;;8.98;2.67;;;20.30;99.90;;;;;;5077143;28;20045;-57
2023/08/13 09:22:16;;;;;;;8.75;2.50;;;20.30;99.90;;;;;;5076538;28;20052;-56
2023/08/13 09:24:41;;;;;;;6.68;1.88;;;20.60;99.90;;;;;;5076780;28;20060;-57
2023/08/13 09:27:08;;;;;;;8.20;2.60;;;20.80;99.90;;;;;;5077306;28;20109;-56
2023/08/13 09:29:38;;;;;;;8.40;2.22;;;20.90;99.90;;;;;;5075552;28;20699;-57
2023/08/13 09:32:04;;;;;;;8.93;2.58;;;20.60;97.50;;;;;;5077536;28;20110;-56
2023/08/13 09:34:33;;;;;;;8.43;2.13;;;20.70;98.30;;;;;;5075889;28;20068;-57
2023/08/13 09:36:59;;;;;;;8.77;2.38;;;20.80;98.20;;;;;;5078347;28;20435;-57
2023/08/13 09:39:28;;;;;;;9.73;2.30;;;21.00;97.40;;;;;;5080448;28;20056;-57
2023/08/13 09:41:54;;;;;;;8.80;2.20;;;21.10;98.50;;;;;;5080545;28;20067;-57
2023/08/13 09:44:24;;;;;;;8.15;2.33;;;21.20;97.20;;;;;;5081496;28;20044;-57
2023/08/13 09:46:55;;;;;;;7.38;2.08;;;21.00;93.30;;;;;;5079204;28;20048;-57
2023/08/13 09:49:27;;;;;;;6.40;1.88;;;21.10;92.50;;;;;;5080656;28;20586;-57
2023/08/13 09:51:56;;;;;;;8.05;1.98;;;21.10;93.10;;;;;;5079341;28;20049;-58
2023/08/13 09:54:37;;;;;;;7.22;1.90;;;21.10;97.50;;;;;;5080232;28;20048;-56
2023/08/13 09:57:08;;;;;;;8.35;1.80;;;20.90;99.50;;;;;;5096312;28;20044;-57
2023/08/13 09:59:36;;;;;;;6.75;2.10;;;20.80;97.00;;;;;;5099237;28;20407;-56
2023/08/13 10:02:09;;;;;;;7.43;1.70;;;20.80;96.40;;;;;;5101793;28;20123;-57
2023/08/13 10:04:41;;;;;;;6.45;2.00;;;20.80;96.60;;;;;;5099216;28;20044;-57
2023/08/13 10:07:08;;;;;;;8.65;1.98;;;21.10;98.30;;;;;;5101152;28;20044;-57
2023/08/13 10:09:35;;;;;;;9.15;2.35;;;21.20;98.80;;;;;;5100282;28;20079;-56
2023/08/13 10:12:02;;;;;;;7.65;1.88;;;21.00;92.80;;;;;;5099855;28;20064;-57
2023/08/13 10:14:28;;;;;;;9.40;2.13;;;21.10;98.90;;;;;;5101523;28;20068;-57
2023/08/13 10:16:54;;;;;;;9.98;2.30;;;21.00;95.50;;;;;;5098922;28;20042;-57
2023/08/13 10:19:28;;;;;;;8.05;1.90;;;21.20;98.00;;;;;;5082814;28;20044;-57
2023/08/13 10:21:58;;;;;;;9.45;1.90;;;21.10;93.50;;;;;;5099241;28;20032;-56
2023/08/13 10:24:28;;;;;;;11.48;2.30;;;21.00;92.90;;;;;;5099980;28;20051;-57
2023/08/13 10:26:53;;;;;;;9.68;2.20;;;21.00;93.50;;;;;;5100550;28;20059;-56
2023/08/13 10:29:20;;;;;;;5.80;1.70;;;21.10;94.00;;;;;;5098885;28;20582;-57
2023/08/13 10:32:14;;;;;;;8.85;1.83;;;21.40;96.20;;;;;;5101170;28;20044;-57
2023/08/13 10:34:40;;;;;;;7.28;1.70;;;21.60;94.70;;;;;;5097651;28;20065;-57
2023/08/13 10:37:17;;;;;;;11.02;2.80;;;21.50;88.70;;;;;;5100407;28;20050;-56
2023/08/13 10:39:45;;;;;;;7.53;1.88;;;21.70;90.60;;;;;;5100016;28;20059;-60
2023/08/13 10:42:26;;;;;;;10.18;2.05;;;21.70;90.90;;;;;;5098694;28;20456;-56
2023/08/13 10:45:12;;;;;;;7.00;1.90;;;21.50;88.60;;;;;;5100835;28;20101;-57
2023/08/13 10:47:52;;;;;;;8.38;2.00;;;21.90;92.00;;;;;;5080507;28;20427;-57
2023/08/13 10:50:22;;;;;;;7.60;1.90;;;21.80;87.80;;;;;;5098994;28;20032;-57
2023/08/13 10:52:51;;;;;;;8.65;1.70;;;21.90;84.90;;;;;;5100661;28;20048;-56
2023/08/13 10:55:18;;;;;;;5.13;1.58;;;21.90;82.80;;;;;;5079611;28;20032;-57
2023/08/13 10:57:52;;;;;;;6.85;2.00;;;22.10;83.80;;;;;;5080037;28;20056;-62
2023/08/13 11:00:20;;;;;;;9.13;1.98;;;22.50;79.70;;;;;;5077894;28;20412;-57
2023/08/13 11:02:50;;;;;;;6.80;1.83;;;22.40;74.50;;;;;;5079548;28;20047;-57
2023/08/13 11:05:16;;;;;;;6.18;1.90;;;22.30;71.90;;;;;;5078939;28;20044;-57
2023/08/13 11:07:43;;;;;;;7.20;2.00;;;22.30;72.00;;;;;;5078429;28;20040;-57
2023/08/13 11:10:16;;;;;;;8.93;2.25;;;22.60;77.50;;;;;;5079928;28;20051;-57
2023/08/13 11:12:41;;;;;;;4.78;1.80;;;22.70;65.30;;;;;;5077094;28;20511;-56
2023/08/13 11:15:07;;;;;;;4.05;1.45;;;22.60;64.60;;;;;;5079521;28;20101;-57
2023/08/13 11:17:33;;;;;;;8.13;1.85;;;22.70;66.30;;;;;;5077609;28;20426;-57
2023/08/13 11:19:59;;;;;;;5.85;1.80;;;22.70;62.90;;;;;;5079070;28;20359;-57
2023/08/13 11:22:24;;;;;;;6.40;1.60;;;22.70;64.70;;;;;;5078424;28;20044;-56
2023/08/13 11:24:50;;;;;;;6.38;1.70;;;22.70;65.10;;;;;;5078094;28;20074;-57
2023/08/13 11:27:16;;;;;;;7.63;2.92;;;22.50;60.80;;;;;;5079272;28;20048;-58
2023/08/13 11:29:42;;;;;;;6.35;1.42;;;22.50;64.70;;;;;;5077205;28;20032;-57
2023/08/13 11:32:08;;;;;;;7.65;2.22;;;22.60;67.50;;;;;;5079332;28;20048;-58
2023/08/13 11:34:33;;;;;;;5.80;1.92;;;22.60;60.90;;;;;;5077331;28;20062;-57
2023/08/13 11:36:59;;;;;;;7.03;1.70;;;22.60;69.40;;;;;;5079151;28;20032;-57
2023/08/13 11:39:25;;;;;;;6.45;1.52;;;22.50;68.70;;;;;;5078209;28;20076;-57
2023/08/13 11:41:51;;;;;;;8.93;1.83;;;22.50;69.20;;;;;;5078081;28;20092;-58
2023/08/13 11:44:19;;;;;;;6.10;2.03;;;22.50;64.80;;;;;;5078780;28;20062;-57
2023/08/13 11:46:55;;;;;;;5.57;2.25;;;22.40;59.30;;;;;;5077074;28;20041;-58
2023/08/13 11:49:21;;;;;;;6.35;2.03;;;22.60;68.70;;;;;;5078808;28;20055;-57
2023/08/13 11:51:47;;;;;;;6.32;2.17;;;22.50;62.50;;;;;;5076752;28;20561;-57
2023/08/13 11:54:13;;;;;;;6.93;2.03;;;22.40;62.30;;;;;;5078464;28;20044;-57
2023/08/13 11:56:40;;;;;;;6.05;2.00;;;22.50;68.00;;;;;;5071457;28;20119;-57
2023/08/13 11:59:06;;;;;;;5.50;2.00;;;22.40;64.30;;;;;;5097517;28;20460;-57
2023/08/13 12:01:34;;;;;;;6.07;2.45;;;22.20;65.60;;;;;;5098985;28;20043;-57
2023/08/13 12:04:04;;;;;;;7.78;2.40;;;22.10;64.30;;;;;;5097343;28;20065;-57
2023/08/13 12:06:29;;;;;;;5.38;2.15;;;22.20;63.70;;;;;;5098966;28;20044;-57
2023/08/13 12:08:58;;;;;;;6.97;2.50;;;22.10;68.80;;;;;;5097353;28;20098;-57
2023/08/13 12:11:24;;;;;;;7.60;2.25;;;22.10;64.30;;;;;;5098621;28;20048;-57
2023/08/13 12:13:49;;;;;;;7.15;2.10;;;21.90;62.40;;;;;;5098117;28;20169;-57
2023/08/13 12:16:15;;;;;;;6.60;2.10;;;21.70;68.30;;;;;;5097504;28;20056;-56
2023/08/13 12:18:41;;;;;;;5.57;2.42;;;22.00;71.00;;;;;;5098530;28;20033;-56
2023/08/13 12:21:07;;;;;;;7.65;2.60;;;22.00;75.60;;;;;;5096754;28;20074;-57
2023/08/13 12:23:32;;;;;;;7.43;2.67;;;22.10;80.90;;;;;;5080443;28;20048;-57
2023/08/13 12:26:01;;;;;;;9.38;2.55;;;21.90;83.70;;;;;;5096651;28;20052;-57
2023/08/13 12:28:27;;;;;;;7.57;2.35;;;21.80;83.10;;;;;;5098000;28;20040;-57
2023/08/13 12:30:53;;;;;;;6.05;2.25;;;21.80;87.10;;;;;;5097589;28;20105;-57
2023/08/13 12:33:19;;;;;;;6.07;2.20;;;21.80;90.00;;;;;;5097488;28;20044;-57
2023/08/13 12:35:44;;;;;;;4.97;1.98;;;21.80;90.60;;;;;;5098332;28;20046;-57
2023/08/13 12:38:10;;;;;;;5.75;1.90;;;21.70;83.20;;;;;;5096405;28;20051;-57